Latest Weather Observations for Mount Baw Baw

IDV60801

Issued at 7:05 pm EST Wednesday 30 July 2014 (issued every 30 minutes, with the page automatically refreshed every 10 minutes)

About weather observations | Map of weather stations | Latest weather observations for VIC | Other Formats
Station Details ID: 085291 Name: MOUNT BAW BAW Lat: -37.84 Lon: 146.27 Height: 1561.0 m
Data from the previous 72 hours. | See also: Recent months at Mount Baw Baw
Date/Time
EST
Temp
°C
App
Temp
°C
Dew
Point
Rel
Hum
%
Delta-T
°C
Wind Press
QNH
hPa
Press
MSL
hPa
Rain
since 9 am
mm
Dir
 
Spd
km/h
Gust
km/h
Spd
kts
Gust
kts
30/07:00pm 3.2 -2.8 3.1 99 0.0 NNW 24 50 - 27 - - 1.0
30/06:30pm 3.3 -2.7 3.2 99 0.0 NW 24 48 - 26 - - 1.0
30/06:00pm 3.4 -2.2 3.3 99 0.0 NW 22 57 - 31 - - 1.0
30/05:30pm 3.4 -2.2 3.3 99 0.0 W 22 57 - 31 - - 1.0
30/05:00pm 3.4 -3.4 3.3 99 0.0 NW 28 63 - 34 - - 1.0
30/04:53pm 3.5 -3.2 3.4 99 0.0 W 28 70 - 38 - - 1.0
30/04:30pm 3.7 -1.5 3.6 99 0.0 W 20 43 - 23 - - 1.0
30/04:00pm 3.8 -1.8 3.7 99 0.0 W 22 46 - 25 - - 1.0
30/03:30pm 3.8 -1.4 3.7 99 0.0 WNW 20 41 - 22 - - 1.0
30/03:00pm 4.0 -1.1 3.9 99 0.0 NW 20 39 - 21 - - 1.0
30/02:30pm 4.0 -0.9 3.9 99 0.0 NW 19 43 - 23 - - 1.0
30/02:00pm 4.0 -0.9 3.9 99 0.0 NW 19 37 - 20 - - 1.0
30/01:30pm 3.8 -2.9 3.7 99 0.0 WNW 28 48 - 26 - - 1.0
30/01:28pm 3.7 -3.0 3.6 99 0.0 WNW 28 48 - 26 - - 1.0
30/01:00pm 3.7 -1.9 3.6 99 0.0 W 22 46 - 25 - - 0.8
30/12:30pm 3.3 -2.3 3.2 99 0.0 W 22 46 - 25 - - 0.6
30/12:00pm 3.4 -2.6 3.3 99 0.0 W 24 44 - 24 - - 0.2
30/11:30am 3.2 -2.5 3.1 99 0.0 WNW 22 39 - 21 - - 0.0
30/11:00am 3.1 -3.0 3.0 99 0.0 WNW 24 46 - 25 - - 0.0
30/10:30am 2.9 -3.2 2.8 99 0.0 W 24 44 - 24 - - 0.0
30/10:00am 3.0 -3.1 2.9 99 0.0 W 24 46 - 25 - - 0.0
30/09:30am 2.7 -3.8 2.6 99 0.0 W 26 46 - 25 - - 0.0
30/09:00am 2.4 -3.4 2.3 99 0.0 W 22 43 - 23 - - 11.2
30/08:30am 2.2 -4.0 2.1 99 0.0 WNW 24 44 - 24 - - 11.2
30/08:13am 2.2 -4.8 2.1 99 0.0 WNW 28 48 - 26 - - 11.2
30/08:00am 2.3 -3.1 2.2 99 0.0 W 20 41 - 22 - - 11.2
30/07:30am 2.3 -3.1 2.2 99 0.0 WNW 20 44 - 24 - - 11.2
30/07:00am 1.8 -4.5 1.7 99 0.0 W 24 46 - 25 - - 11.2
30/06:30am 2.8 -4.8 2.7 99 0.0 W 32 57 - 31 - - 11.2
30/06:00am 3.1 -4.1 3.0 99 0.0 W 30 48 - 26 - - 11.0
30/05:56am 3.1 -3.7 3.0 99 0.0 W 28 48 - 26 - - 11.0
30/05:30am 3.2 -2.8 3.1 99 0.0 W 24 41 - 22 - - 11.0
30/05:05am 3.2 -3.6 3.1 99 0.0 W 28 46 - 25 - - 11.0
30/05:00am 3.2 -3.2 3.1 99 0.0 W 26 41 - 22 - - 11.0
30/04:31am 3.1 -3.7 3.0 99 0.0 W 28 48 - 26 - - 10.8
30/04:30am 3.0 -3.8 2.9 99 0.0 W 28 44 - 24 - - 10.8
30/04:15am 3.1 -3.7 3.0 99 0.0 W 28 48 - 26 - - 10.8
30/04:00am 3.2 -3.2 3.1 99 0.0 W 26 44 - 24 - - 10.8
30/03:30am 3.3 -2.7 3.2 99 0.0 W 24 41 - 22 - - 10.6
30/03:00am 3.5 -2.1 3.4 99 0.0 WNW 22 41 - 22 - - 10.6
30/02:30am 3.2 -3.6 3.1 99 0.0 W 28 52 - 28 - - 10.6
30/02:00am 3.3 -4.2 3.2 99 0.0 W 32 56 - 30 - - 10.6
30/01:30am 3.4 -3.7 3.3 99 0.0 W 30 52 - 28 - - 10.4
30/01:00am 3.6 -4.1 3.5 99 0.0 WSW 33 56 - 30 - - 10.4
30/12:30am 3.7 -3.0 3.6 99 0.0 W 28 52 - 28 - - 9.8
30/12:00am 3.7 -3.0 3.6 99 0.0 WSW 28 54 - 29 - - 9.8
 
Date/Time
EST
Temp
°C
App
Temp
°C
Dew
Point
Rel
Hum
%
Delta-T
°C
Wind Press
QNH
hPa
Press
MSL
hPa
Rain
since 9 am
mm
Dir
 
Spd
km/h
Gust
km/h
Spd
kts
Gust
kts
29/11:30pm 3.6 -3.1 3.5 99 0.0 W 28 57 - 31 - - 9.4
29/11:00pm 3.7 -3.4 3.6 99 0.0 W 30 61 - 33 - - 8.6
29/10:30pm 3.8 -3.3 3.7 99 0.0 W 30 48 - 26 - - 7.8
29/10:00pm 3.6 -3.5 3.5 99 0.0 WSW 30 56 - 30 - - 7.0
29/09:30pm 3.7 -3.8 3.6 99 0.0 W 32 65 - 35 - - 6.2
29/09:00pm 3.5 -3.2 3.4 99 0.0 WNW 28 54 - 29 - - 5.8
29/08:30pm 3.7 -3.8 3.6 99 0.0 WNW 32 70 - 38 - - 5.8
29/08:28pm 3.6 -3.9 3.5 99 0.0 WNW 32 70 - 38 - - 5.8
29/08:00pm 3.5 -3.2 3.4 99 0.0 WNW 28 48 - 26 - - 5.0
29/07:30pm 3.5 -3.6 3.4 99 0.0 WNW 30 59 - 32 - - 4.0
29/07:00pm 3.2 -3.6 3.1 99 0.0 WNW 28 50 - 27 - - 3.2
29/06:30pm 3.1 -4.1 3.0 99 0.0 NW 30 50 - 27 - - 1.2
29/06:00pm 3.1 -5.0 3.0 99 0.0 WNW 35 89 - 48 - - 1.2
29/05:57pm 3.2 -4.9 3.1 99 0.0 WNW 35 89 - 48 - - 1.2
29/05:30pm 2.9 -4.0 2.8 99 0.0 NW 28 65 - 35 - - 0.6
29/05:11pm 2.7 -4.2 2.6 99 0.0 NW 28 52 - 28 - - 0.6
29/05:00pm 2.6 -3.5 2.5 99 0.0 NW 24 56 - 30 - - 0.6
29/04:38pm 2.6 -4.3 2.5 99 0.0 NW 28 50 - 27 - - 0.6
29/04:30pm 2.5 -3.7 2.4 99 0.0 NW 24 48 - 26 - - 0.6
29/04:06pm 2.4 -4.5 2.3 99 0.0 WNW 28 63 - 34 - - 0.6
29/04:00pm 2.4 -3.8 2.3 99 0.0 WNW 24 44 - 24 - - 0.4
29/03:45pm 2.5 -4.8 2.4 99 0.0 NNW 30 65 - 35 - - 0.4
29/03:30pm 2.5 -4.4 2.4 99 0.0 NNW 28 46 - 25 - - 0.4
29/03:00pm 2.4 -4.5 2.3 99 0.0 NNW 28 59 - 32 - - 0.4
29/02:34pm 2.4 -4.5 2.3 99 0.0 NW 28 52 - 28 - - 0.4
29/02:30pm 2.4 -4.2 2.3 99 0.0 NW 26 50 - 27 - - 0.4
29/02:00pm 2.4 -4.5 2.3 99 0.0 NNW 28 61 - 33 - - 0.4
29/01:43pm 2.4 -4.5 2.3 99 0.0 NW 28 56 - 30 - - 0.4
29/01:30pm 2.2 -4.0 2.1 99 0.0 NW 24 50 - 27 - - 0.4
29/01:00pm 2.2 -4.4 2.1 99 0.0 NNW 26 59 - 32 - - 0.4
29/12:40pm 2.0 -5.0 1.9 99 0.0 NW 28 52 - 28 - - 0.4
29/12:30pm 2.0 -4.2 1.9 99 0.0 NNW 24 46 - 25 - - 0.4
29/12:00pm 1.9 -4.7 1.8 99 0.0 NNW 26 50 - 27 - - 0.4
29/11:30am 1.8 -4.5 1.7 99 0.0 NNW 24 50 - 27 - - 0.4
29/11:00am 1.7 -4.6 1.6 99 0.0 NNW 24 41 - 22 - - 0.4
29/10:30am 1.8 -4.1 1.7 99 0.0 NNW 22 46 - 25 - - 0.4
29/10:00am 1.6 -4.7 1.5 99 0.0 NW 24 52 - 28 - - 0.4
29/09:38am 1.6 -5.5 1.5 99 0.0 NNW 28 59 - 32 - - 0.2
29/09:30am 1.5 -4.8 1.4 99 0.0 NW 24 59 - 32 - - 0.2
29/09:00am 1.0 -5.0 0.9 99 0.0 NNW 22 46 - 25 - - 1.6
29/08:30am 1.1 -5.7 1.0 99 0.0 NNW 26 56 - 30 - - 0.0
29/08:00am 1.1 -5.3 1.0 99 0.0 NNW 24 48 - 26 - - 0.0
29/07:31am 1.2 -5.9 1.1 99 0.0 NNW 28 50 - 27 - - 0.0
29/07:30am 1.2 -5.6 1.1 99 0.0 NNW 26 50 - 27 - - 0.0
29/07:00am 1.3 -5.4 1.2 99 0.0 NNW 26 48 - 26 - - 0.0
29/06:53am 1.2 -5.9 1.1 99 0.0 NNW 28 52 - 28 - - 0.0
29/06:30am 1.2 -4.4 1.1 99 0.0 NNW 20 44 - 24 - - 0.0
29/06:00am 1.1 -4.9 1.0 99 0.0 N 22 50 - 27 - - 0.0
29/05:48am 1.0 -6.2 0.9 99 0.0 NNW 28 50 - 27 - - 0.0
29/05:30am 1.0 -5.0 0.9 99 0.0 NNW 22 50 - 27 - - 0.0
29/05:00am 0.9 -5.5 0.8 99 0.0 N 24 48 - 26 - - 0.0
29/04:30am 0.8 -5.3 0.2 96 0.2 N 22 46 - 25 - - 0.0
29/04:00am 0.7 -5.5 -0.3 93 0.4 NNW 22 50 - 27 - - 0.0
29/03:30am 0.7 -5.2 -1.1 88 0.7 NNW 20 43 - 23 - - 0.0
29/03:00am 1.0 -5.0 -1.4 84 0.9 NNW 20 41 - 22 - - 0.0
29/02:30am 1.1 -4.8 -0.8 87 0.8 NNW 20 39 - 21 - - 0.0
29/02:00am 0.9 -4.8 0.3 96 0.2 NNW 20 37 - 20 - - 0.0
29/01:30am 1.2 -4.8 0.8 97 0.2 NNW 22 39 - 21 - - 0.0
29/01:00am 1.4 -4.3 0.8 96 0.2 N 20 43 - 23 - - 0.0
29/12:30am 1.1 -5.0 0.5 96 0.2 NNW 22 46 - 25 - - 0.0
29/12:00am 0.8 -4.9 -1.0 88 0.7 NNW 19 35 - 19 - - 0.0
 
Date/Time
EST
Temp
°C
App
Temp
°C
Dew
Point
Rel
Hum
%
Delta-T
°C
Wind Press
QNH
hPa
Press
MSL
hPa
Rain
since 9 am
mm
Dir
 
Spd
km/h
Gust
km/h
Spd
kts
Gust
kts
28/11:30pm 0.9 -4.9 -0.2 92 0.4 N 20 37 - 20 - - 0.0
28/11:00pm 1.0 -4.6 0.0 93 0.4 NNW 19 39 - 21 - - 0.0
28/10:30pm 1.1 -4.4 0.5 96 0.2 N 19 39 - 21 - - 0.0
28/10:00pm 1.1 -4.3 1.0 99 0.0 N 19 44 - 24 - - 0.0
28/09:30pm 1.4 -4.2 1.3 99 0.0 NNW 20 44 - 24 - - 0.0
28/09:00pm 1.5 -3.9 1.4 99 0.0 N 19 37 - 20 - - 0.0
28/08:30pm 1.5 -4.1 1.4 99 0.0 N 20 43 - 23 - - 0.0
28/08:00pm 1.4 -4.2 1.3 99 0.0 NNW 20 37 - 20 - - 0.0
28/07:30pm 1.5 -3.9 1.4 99 0.0 N 19 35 - 19 - - 0.0
28/07:00pm 1.7 -3.8 1.6 99 0.0 N 20 39 - 21 - - 0.0
28/06:30pm 1.9 -4.0 1.6 98 0.1 NNW 22 46 - 25 - - 0.0
28/06:00pm 1.9 -3.1 1.5 97 0.2 NNW 17 35 - 19 - - 0.0
28/05:30pm 2.3 -2.4 1.1 92 0.5 NW 15 32 - 17 - - 0.0
28/05:00pm 2.9 -2.1 1.1 88 0.8 NNW 17 39 - 21 - - 0.0
28/04:30pm 3.4 -2.0 1.0 84 1.0 N 19 37 - 20 - - 0.0
28/04:00pm 4.0 -2.1 0.7 79 1.4 N 22 39 - 21 - - 0.0
28/03:30pm 4.5 -1.2 0.5 75 1.7 WNW 20 33 - 18 - - 0.0
28/03:00pm 4.9 -0.8 0.3 72 2.0 NNW 20 41 - 22 - - 0.0
28/02:30pm 5.0 -1.5 0.6 73 1.9 NW 24 46 - 25 - - 0.0
28/02:00pm 4.9 -0.6 0.9 75 1.7 NNW 19 39 - 21 - - 0.0
28/01:30pm 4.6 -1.0 1.1 78 1.5 NNW 20 41 - 22 - - 0.0
28/01:00pm 4.6 -0.9 0.7 76 1.7 NNW 19 39 - 21 - - 0.0
28/12:30pm 4.5 -2.0 0.3 74 1.8 WNW 24 48 - 26 - - 0.0
28/12:00pm 4.6 -1.0 0.0 72 1.9 NNW 19 39 - 21 - - 0.0
28/11:30am 4.6 -0.3 -0.2 71 2.0 N 15 30 - 16 - - 0.0
28/11:00am 4.2 -1.0 -0.2 73 1.8 NNW 17 39 - 21 - - 0.0
28/10:30am 3.7 -1.9 -0.1 76 1.6 NW 19 39 - 21 - - 0.0
28/10:00am 3.0 -2.2 0.4 83 1.1 NW 17 30 - 16 - - 0.0
28/09:30am 2.3 -3.2 0.4 87 0.8 NW 19 37 - 20 - - 0.0
28/09:00am 1.9 -3.7 0.1 88 0.7 NW 19 35 - 19 - - 0.0
28/08:30am 1.8 -4.0 0.2 89 0.7 NW 20 39 - 21 - - 0.0
28/08:00am 1.2 -4.4 0.2 93 0.4 NW 19 35 - 19 - - 0.0
28/07:30am 1.2 -4.5 0.3 94 0.4 WNW 20 37 - 20 - - 0.0
28/07:00am 1.0 -4.7 0.4 96 0.2 NW 20 35 - 19 - - 0.0
28/06:30am 0.9 -4.8 0.8 99 0.0 NW 20 39 - 21 - - 0.0
28/06:00am 0.9 -4.8 0.8 99 0.0 NW 20 39 - 21 - - 0.0
28/05:30am 0.9 -4.8 0.8 99 0.0 NW 20 33 - 18 - - 0.0
28/05:00am 0.9 -4.8 0.8 99 0.0 NW 20 41 - 22 - - 0.0
28/04:30am 0.7 -5.0 0.6 99 0.0 NNW 20 41 - 22 - - 0.0
28/04:00am 0.8 -4.9 0.7 99 0.0 NW 20 35 - 19 - - 0.0
28/03:30am 0.8 -4.9 0.7 99 0.0 NW 20 41 - 22 - - 0.0
28/03:00am 0.8 -4.9 0.7 99 0.0 NW 20 37 - 20 - - 0.0
28/02:30am 0.9 -5.1 0.8 99 0.0 NW 22 44 - 24 - - 0.0
28/02:00am 0.9 -5.1 0.8 99 0.0 NW 22 39 - 21 - - 0.0
28/01:30am 0.9 -5.1 0.8 99 0.0 NW 22 43 - 23 - - 0.0
28/01:00am 0.8 -5.3 0.7 99 0.0 NNW 22 52 - 28 - - 0.0
28/12:30am 0.7 -5.4 0.6 99 0.0 NNW 22 43 - 23 - - 0.0
28/12:00am 0.6 -5.5 0.5 99 0.0 NNW 22 44 - 24 - - 0.0
 
Date/Time
EST
Temp
°C
App
Temp
°C
Dew
Point
Rel
Hum
%
Delta-T
°C
Wind Press
QNH
hPa
Press
MSL
hPa
Rain
since 9 am
mm
Dir
 
Spd
km/h
Gust
km/h
Spd
kts
Gust
kts
27/11:30pm 0.5 -5.6 0.2 98 0.1 NW 22 43 - 23 - - 0.0
27/11:00pm 0.6 -5.5 0.5 99 0.0 NNW 22 41 - 22 - - 0.0
27/10:30pm 0.7 -5.4 0.6 99 0.0 NW 22 43 - 23 - - 0.0
27/10:00pm 0.7 -5.0 0.6 99 0.0 NNW 20 46 - 25 - - 0.0
27/09:30pm 0.7 -5.0 0.6 99 0.0 NNW 20 33 - 18 - - 0.0
27/09:00pm 0.7 -5.1 0.0 95 0.3 NNW 20 37 - 20 - - 0.0
27/08:30pm 0.8 -4.4 -0.1 94 0.4 NW 17 35 - 19 - - 0.0
27/08:00pm 1.2 -4.5 -0.6 88 0.7 NNW 19 35 - 19 - - 0.0
27/07:30pm 1.6 -4.2 -1.6 79 1.3 NNW 19 33 - 18 - - 0.0

Other Formats:

Comma delimited format used in spreadsheet applications
http://www.bom.gov.au/fwo/IDV60801/IDV60801.95901.axf

JavaScript Object Notation format (JSON) in row-major order
http://www.bom.gov.au/fwo/IDV60801/IDV60801.95901.json